Historyczne dane pomiarowe

Dodano dane terminowe – wersja testowa.

Dane z okresu 1951-2019

Wersja bazy: 1.34 [2019-03-16, lista zmian], aktualizacja planowana na 2019-04-15

Dane meteo z obszaru Polski uzyskane na podstawie danych udostępnionych przez Instytut Meteorologii i Gospodarki Wodnej – Państwowy Instytut Badawczy.

 

Wybierz Datę:    

       

TemperaturaWilgotnośćWiatrCiśnienieOpadyŚniegCzas trwania zjawisk
 Stacja t tx tn tng RH VA  wxwx mslp ppp RRR   cm mm wxwxwxwxwxwxwx
1999-08-14 14.6 21.8 6.6 5.0 74.8- 3.0 1.3---- 0.0------------
1999-08-13 14.6 21.5 6.7 5.5 75.8- 4.7 2.7---- 0.0------------
1999-08-12 16.2 20.8 13.1 13.5 83.5- 7.0 1.7---- 0.0------------
1999-08-11 18.5 24.0 14.6 13.5 89.5- 6.3 1.7---- 11.0------------
1999-08-10 20.3 27.8 15.1 13.0 81.0- 6.3 0.7---- 5.5------------
1999-08-09 22.6 31.5 16.6 14.3 75.5- 2.7 1.0---- 0.0------------
1999-08-08 21.7 28.7 15.1 14.9 82.5- 4.3 2.3---- 0.0------------
1999-08-07 21.3 30.7 12.6 10.5 76.8- 5.7 1.3---- 19.4------------
1999-08-06 21.6 28.5 16.3 15.0 79.0- 4.3 2.0---- 0.0------------
1999-08-05 18.2 27.7 9.1 6.5 76.3- 4.3 0.7---- 3.3------------
1999-08-04 16.7 25.3 7.6 5.0 76.5- 3.3 0.7---- 0.0------------
1999-08-03 16.6 24.0 9.1 6.5 86.5- 3.7 0.7---- 0.0------------
1999-08-02 16.8 24.0 9.1 6.8 73.3- 5.0 2.0---- 0.0------------
1999-08-01 18.1 26.2 11.7 10.5 61.3- 4.0 4.3---- 0.2------------
1999-07-31 19.1 26.7 10.1 8.5 61.0- 4.3 3.3---- 0.0------------
1999-07-30 18.6 25.7 9.6 8.0 62.0- 2.7 3.3---- 0.0------------
1999-07-29 17.8 25.2 11.1 9.0 71.8- 1.7 3.3---- 0.0------------
1999-07-28 18.7 25.7 11.0 8.8 68.0- 1.7 2.3---- 0.0------------
1999-07-27 19.6 24.9 15.1 13.0 80.0- 6.0 3.3---- 0.0------------
1999-07-26 21.1 27.7 13.6 11.0 72.8- 5.3 1.3---- 0.0------------
1999-07-25 18.4 24.7 10.2 8.0 77.0- 3.3 1.0---- 0.0------------
1999-07-24 16.1 21.1 10.6 9.5 86.3- 6.3 1.7---- 0.0------------
1999-07-23 15.6 20.3 13.1 13.0 95.8- 8.0 1.3---- 2.7------------
1999-07-22 19.5 24.7 15.2 13.3 81.3- 7.0 2.3---- 2.2------------
1999-07-21 22.4 29.4 14.6 12.5 57.0- 5.0 3.3---- 1.9------------
1999-07-20 21.7 29.5 12.1 9.5 68.3- 0.3 1.7---- 0.0------------
1999-07-19 19.8 28.8 9.0 7.0 73.8- 3.0 0.3---- 0.0------------
1999-07-18 19.1 26.7 8.8 7.0 87.5- 1.3 0.7---- 0.0------------
1999-07-17 18.1 24.7 9.6 8.0 76.0- 0.0 1.7---- 0.0------------
1999-07-16 16.8 23.2 11.2 9.0 76.3- 4.7 2.0---- 0.2------------
1999-07-15 15.9 19.4 14.2 12.9 77.0- 6.3 4.0---- 0.0------------
1999-07-14 19.9 26.4 16.5 16.1 82.5- 6.7 3.3---- 0.9------------
1999-07-13 19.8 24.7 14.0 12.1 91.0- 6.0 2.7---- 7.7------------
1999-07-12 19.7 27.0 13.9 11.0 77.3- 4.3 2.3---- 0.3------------
1999-07-11 19.0 21.8 16.0 14.8 80.8- 6.0 4.7---- 6.4------------
1999-07-10 19.5 23.7 16.9 15.9 80.0- 7.0 5.0---- 0.0------------
1999-07-09 18.4 20.8 15.7 15.5 95.0- 7.7 3.7---- 0.0------------
1999-07-08 17.5 20.9 16.0 16.0 97.0- 6.7 3.7---- 0.8------------
1999-07-07 22.0 28.2 19.0 18.0 83.8- 6.3 3.0---- 14.4------------
1999-07-06 25.1 31.4 16.9 15.1 69.0- 2.7 2.7---- 0.0------------
1999-07-05 24.3 30.9 15.2 12.8 73.8- 3.3 3.0---- 0.0------------
1999-07-04 22.9 30.7 12.0 11.6 74.0- 1.3 2.3---- 0.0------------
1999-07-03 20.6 25.0 15.5 13.9 74.5- 3.0 2.0---- 0.0------------
1999-07-02 18.8 25.0 14.5 11.2 76.0- 6.0 2.0---- 0.0------------
1999-07-01 19.5 24.8 12.6 12.0 74.0- 5.3 1.3---- 0.0------------
1999-06-30 19.2 25.4 13.2 12.0 92.5- 4.0 1.3---- 0.0------------
1999-06-29 18.5 23.6 14.4 13.5 93.0- 3.0 1.0---- 0.0------------
1999-06-28 18.4 26.4 12.2 11.3 93.5- 3.7 1.0---- 2.4------------
1999-06-27 19.7 25.3 11.5 10.4 90.8- 3.3 1.0---- 0.0------------
1999-06-26 15.5 22.9 8.2 7.0 97.0- 6.0 1.7---- 0.0------------
1999-06-25 14.1 19.0 9.0 7.3 97.5- 5.7 1.0---- 0.0------------
1999-06-24 13.0 16.4 9.4 8.4 96.8- 5.7 1.3---- 0.0------------
1999-06-23 10.1 12.3 7.8 7.1 99.8- 8.0 3.0---- 0.1------------
1999-06-22 11.6 19.4 7.6 6.3100.0- 8.0 6.0---- 36.8------------
1999-06-21 17.8 22.4 14.5 13.0 97.0- 6.0 2.7---- 26.2------------
1999-06-20 16.6 20.2 12.9 12.2 97.8- 6.7 1.0---- 0.0------------
1999-06-19 13.5 15.8 11.0 9.8 98.5- 7.0 1.3---- 0.0------------
1999-06-18 15.4 20.0 12.2 10.9 98.8- 8.0 1.3---- 2.1------------
1999-06-17 17.1 20.4 13.9 12.2 98.3- 7.0 1.0---- 12.1------------
1999-06-16 15.8 18.3 13.2 11.6 98.8- 7.7 1.0---- 0.2------------
235.8 ms

 

Źródłem pochodzenia danych jest Instytut Meteorologii i Gospodarki Wodnej – Państwowy Instytut Badawczy. Dane Instytutu Meteorologii i Gospodarki Wodnej – Państwowego Instytutu Badawczego zostały przetworzone.

Dane źródłowe można odnaleźć na stronie https://dane.imgw.pl